Terminal Aerodrome Forecast
Issued by NWS Shreveport, LA

Home | Current Version | Previous Version | Text Only | Print | Product List | Glossary On
Versions: 1 2 3 4 5 6 7 8 9 10 11 12 13 14 15 16 17 18 19 20 21 22 23 24 25 26 27 28 29 30 31 32
000
FTUS44 KSHV 252358
TAFSHV
TAF
KSHV 252358Z 2600/2624 04004KT P6SM VCSH SCT012 OVC017
      TEMPO 2600/2603 6SM -SHRA OVC007
     FM260300 01004KT 6SM BR OVC007
     FM260800 01004KT 4SM BR OVC009
     FM261500 05007KT P6SM BKN015 BKN250
     FM261800 06005KT P6SM SKC=

USA.gov is the U.S. government's official web portal to all federal, state and local government web resources and services.